createdAt,value
2022-09-16T00:00:29.083Z,15.81
2022-09-16T00:01:29.006Z,15.78
2022-09-16T00:02:29.007Z,15.78
2022-09-16T00:03:28.961Z,15.78
2022-09-16T00:04:28.933Z,15.80
2022-09-16T00:05:28.930Z,15.76
2022-09-16T00:06:28.912Z,15.73
2022-09-16T00:07:28.910Z,15.77
2022-09-16T00:08:28.890Z,15.78
2022-09-16T00:09:28.876Z,15.73
2022-09-16T00:10:28.876Z,15.80
2022-09-16T00:11:28.859Z,15.80
2022-09-16T00:12:28.844Z,15.81
2022-09-16T00:13:28.834Z,15.77
2022-09-16T00:14:28.826Z,15.69
2022-09-16T00:15:28.826Z,15.69
2022-09-16T00:16:28.855Z,15.65
2022-09-16T00:17:28.793Z,15.63
2022-09-16T00:18:28.783Z,15.63
2022-09-16T00:19:28.787Z,15.66
2022-09-16T00:20:28.770Z,15.66
2022-09-16T00:21:28.757Z,15.56
2022-09-16T00:22:28.739Z,15.56
2022-09-16T00:23:28.719Z,15.59
2022-09-16T00:24:28.725Z,15.59
2022-09-16T00:25:28.711Z,15.52
2022-09-16T00:26:28.706Z,15.54
2022-09-16T00:27:28.685Z,15.60
2022-09-16T00:28:28.670Z,15.59
2022-09-16T00:29:28.726Z,15.60
2022-09-16T00:30:28.661Z,15.51
2022-09-16T00:31:28.664Z,15.56
2022-09-16T00:32:28.626Z,15.56
2022-09-16T00:33:28.610Z,15.54
2022-09-16T00:34:28.608Z,15.51
2022-09-16T00:35:28.623Z,15.51
2022-09-16T00:36:28.576Z,15.54
2022-09-16T00:37:28.579Z,15.50
2022-09-16T00:38:28.556Z,15.47
2022-09-16T00:39:28.548Z,15.54
2022-09-16T00:40:28.612Z,15.58
2022-09-16T00:41:28.535Z,15.48
2022-09-16T00:42:28.527Z,15.50
2022-09-16T00:43:28.518Z,15.47
2022-09-16T00:44:28.500Z,15.44
2022-09-16T00:45:28.518Z,15.48
2022-09-16T00:46:28.531Z,15.48
2022-09-16T00:47:28.459Z,15.43
2022-09-16T00:48:28.456Z,15.44
2022-09-16T00:49:28.434Z,15.47
2022-09-16T00:50:28.432Z,15.44
2022-09-16T00:51:28.439Z,15.44
2022-09-16T00:52:28.409Z,15.44
2022-09-16T00:53:28.390Z,15.44
2022-09-16T00:54:28.386Z,15.40
2022-09-16T00:55:28.392Z,15.40
2022-09-16T00:56:28.360Z,15.40
2022-09-16T00:57:28.352Z,15.36
2022-09-16T00:58:28.341Z,15.41
2022-09-16T00:59:28.342Z,15.35
2022-09-16T01:00:28.364Z,15.33
2022-09-16T01:01:28.307Z,15.35
2022-09-16T01:02:28.399Z,15.38
2022-09-16T01:03:28.319Z,15.32
2022-09-16T01:04:28.273Z,15.30
2022-09-16T01:05:28.273Z,15.26
2022-09-16T01:06:28.272Z,15.32
2022-09-16T01:07:28.262Z,15.30
2022-09-16T01:08:28.231Z,15.23
2022-09-16T01:09:28.297Z,15.25
2022-09-16T01:10:28.226Z,15.27
2022-09-16T01:11:28.202Z,15.26
2022-09-16T01:12:28.182Z,15.29
2022-09-16T01:13:28.180Z,15.23
2022-09-16T01:14:28.174Z,15.17
2022-09-16T01:15:28.174Z,15.17
2022-09-16T01:16:28.205Z,15.25
2022-09-16T01:17:28.135Z,15.23
2022-09-16T01:18:28.120Z,15.12
2022-09-16T01:19:28.118Z,15.14
2022-09-16T01:20:28.121Z,15.14
2022-09-16T01:21:28.089Z,15.14
2022-09-16T01:22:28.119Z,15.25
2022-09-16T01:23:28.085Z,15.07
2022-09-16T01:24:28.056Z,15.10
2022-09-16T01:25:28.060Z,15.15
2022-09-16T01:26:28.052Z,15.15
2022-09-16T01:27:28.022Z,15.15
2022-09-16T01:28:28.010Z,15.11
2022-09-16T01:29:28.006Z,15.07
2022-09-16T01:30:28.009Z,15.14
2022-09-16T01:31:28.020Z,15.10
2022-09-16T01:32:27.993Z,15.11
2022-09-16T01:33:27.956Z,15.04
2022-09-16T01:34:27.956Z,15.12
2022-09-16T01:35:27.972Z,15.04
2022-09-16T01:36:27.937Z,15.08
2022-09-16T01:37:27.930Z,15.05
2022-09-16T01:38:27.902Z,15.11
2022-09-16T01:39:27.911Z,15.10
2022-09-16T01:40:27.961Z,15.05
2022-09-16T01:41:27.867Z,14.99
2022-09-16T01:42:27.869Z,15.05
2022-09-16T01:43:27.888Z,15.10
2022-09-16T01:44:27.835Z,15.07
2022-09-16T01:45:27.831Z,14.99
2022-09-16T01:46:27.899Z,14.96
2022-09-16T01:47:27.847Z,14.93
2022-09-16T01:48:27.797Z,14.97
2022-09-16T01:49:27.777Z,14.93
2022-09-16T01:50:27.780Z,14.90
2022-09-16T01:51:27.756Z,14.96
2022-09-16T01:52:27.747Z,14.95
2022-09-16T01:53:27.733Z,15.01
2022-09-16T01:54:27.732Z,14.96
2022-09-16T01:55:27.742Z,14.99
2022-09-16T01:56:27.704Z,14.93
2022-09-16T01:57:27.690Z,14.95
2022-09-16T01:58:27.680Z,14.92
2022-09-16T01:59:27.667Z,14.90
2022-09-16T02:00:27.669Z,14.90
2022-09-16T02:01:27.671Z,14.92
2022-09-16T02:02:27.729Z,14.78
2022-09-16T02:03:27.629Z,14.74
2022-09-16T02:04:27.615Z,14.78
2022-09-16T02:05:27.630Z,14.74
2022-09-16T02:06:27.638Z,14.85
2022-09-16T02:07:27.582Z,14.78
2022-09-16T02:08:27.602Z,14.82
2022-09-16T02:09:27.570Z,14.79
2022-09-16T02:10:27.566Z,14.74
2022-09-16T02:11:27.668Z,14.79
2022-09-16T02:12:27.540Z,14.83
2022-09-16T02:13:27.554Z,14.71
2022-09-16T02:14:27.501Z,14.83
2022-09-16T02:15:27.506Z,14.79
2022-09-16T02:16:27.525Z,14.71
2022-09-16T02:17:27.474Z,14.73
2022-09-16T02:18:27.457Z,14.71
2022-09-16T02:19:27.463Z,14.74
2022-09-16T02:20:27.464Z,14.69
2022-09-16T02:21:27.433Z,14.71
2022-09-16T02:22:27.422Z,14.73
2022-09-16T02:23:27.411Z,14.67
2022-09-16T02:24:27.401Z,14.70
2022-09-16T02:25:27.395Z,14.70
2022-09-16T02:26:27.372Z,14.63
2022-09-16T02:27:27.378Z,14.63
2022-09-16T02:28:27.373Z,14.64
2022-09-16T02:29:27.342Z,14.70
2022-09-16T02:30:27.361Z,14.59
2022-09-16T02:31:27.424Z,14.64
2022-09-16T02:32:27.301Z,14.64
2022-09-16T02:33:27.313Z,14.64
2022-09-16T02:34:27.283Z,14.56
2022-09-16T02:35:27.290Z,14.59
2022-09-16T02:36:27.262Z,14.55
2022-09-16T02:37:27.252Z,14.61
2022-09-16T02:38:27.263Z,14.63
2022-09-16T02:39:27.227Z,14.56
2022-09-16T02:40:27.278Z,14.55
2022-09-16T02:41:27.212Z,14.56
2022-09-16T02:42:27.192Z,14.61
2022-09-16T02:43:27.201Z,14.61
2022-09-16T02:44:27.171Z,14.59
2022-09-16T02:45:27.188Z,14.56
2022-09-16T02:46:27.213Z,14.58
2022-09-16T02:47:27.141Z,14.58
2022-09-16T02:48:27.147Z,14.55
2022-09-16T02:49:27.118Z,14.55
2022-09-16T02:50:27.119Z,14.55
2022-09-16T02:51:27.100Z,14.59
2022-09-16T02:52:27.086Z,14.61
2022-09-16T02:53:27.078Z,14.52
2022-09-16T02:54:27.061Z,14.52
2022-09-16T02:55:27.061Z,14.52
2022-09-16T02:56:27.052Z,14.56
2022-09-16T02:57:27.061Z,14.53
2022-09-16T02:58:27.017Z,14.41
2022-09-16T02:59:27.029Z,14.49
2022-09-16T03:00:27.013Z,14.46
2022-09-16T03:01:27.064Z,14.41
2022-09-16T03:02:27.013Z,14.49
2022-09-16T03:03:26.965Z,14.45
2022-09-16T03:04:26.979Z,14.53
2022-09-16T03:05:26.952Z,14.44
2022-09-16T03:06:26.934Z,14.51
2022-09-16T03:07:26.921Z,14.49
2022-09-16T03:08:26.909Z,14.48
2022-09-16T03:09:26.901Z,14.41
2022-09-16T03:10:26.905Z,14.46
2022-09-16T03:11:30.291Z,14.31
2022-09-16T03:12:26.864Z,14.41
2022-09-16T03:13:26.848Z,14.44
2022-09-16T03:14:26.844Z,14.38
2022-09-16T03:15:26.876Z,14.44
2022-09-16T03:16:26.881Z,14.38
2022-09-16T03:17:26.837Z,14.41
2022-09-16T03:18:26.804Z,14.36
2022-09-16T03:19:26.814Z,14.40
2022-09-16T03:20:26.781Z,14.36
2022-09-16T03:21:26.783Z,14.40
2022-09-16T03:22:26.764Z,14.36
2022-09-16T03:23:26.740Z,14.33
2022-09-16T03:24:26.734Z,14.31
2022-09-16T03:25:26.741Z,14.30
2022-09-16T03:26:26.709Z,14.34
2022-09-16T03:27:26.710Z,14.27
2022-09-16T03:28:26.691Z,14.28
2022-09-16T03:29:26.687Z,14.30
2022-09-16T03:30:26.675Z,14.28
2022-09-16T03:31:26.779Z,14.28
2022-09-16T03:32:26.648Z,14.34
2022-09-16T03:33:26.642Z,14.33
2022-09-16T03:34:26.623Z,14.28
2022-09-16T03:35:26.614Z,14.30
2022-09-16T03:36:26.599Z,14.27
2022-09-16T03:37:26.587Z,14.30
2022-09-16T03:38:26.574Z,14.30
2022-09-16T03:39:26.567Z,14.31
2022-09-16T03:40:26.668Z,14.30
2022-09-16T03:41:26.537Z,14.30
2022-09-16T03:42:26.535Z,14.31
2022-09-16T03:43:26.574Z,14.26
2022-09-16T03:44:26.524Z,14.22
2022-09-16T03:45:26.514Z,14.23
2022-09-16T03:46:26.552Z,14.26
2022-09-16T03:47:26.486Z,14.26
2022-09-16T03:48:26.480Z,14.23
2022-09-16T03:49:26.449Z,14.19
2022-09-16T03:50:26.457Z,14.26
2022-09-16T03:51:26.445Z,14.26
2022-09-16T03:52:26.473Z,14.26
2022-09-16T03:53:26.407Z,14.21
2022-09-16T03:54:26.406Z,14.28
2022-09-16T03:55:26.396Z,14.15
2022-09-16T03:56:26.375Z,14.23
2022-09-16T03:57:26.363Z,14.15
2022-09-16T03:58:26.401Z,14.22
2022-09-16T03:59:26.357Z,14.22
2022-09-16T04:00:26.344Z,14.23
2022-09-16T04:01:26.465Z,14.26
2022-09-16T04:02:26.364Z,14.21
2022-09-16T04:03:29.943Z,14.18
2022-09-16T04:04:27.303Z,14.12
2022-09-16T04:05:26.299Z,14.22
2022-09-16T04:06:26.263Z,14.19
2022-09-16T04:07:26.259Z,14.18
2022-09-16T04:08:26.241Z,14.21
2022-09-16T04:09:26.292Z,14.16
2022-09-16T04:10:26.260Z,14.16
2022-09-16T04:11:26.209Z,14.22
2022-09-16T04:12:26.209Z,14.18
2022-09-16T04:13:26.200Z,14.16
2022-09-16T04:14:26.221Z,14.16
2022-09-16T04:15:26.178Z,14.12
2022-09-16T04:16:26.210Z,14.13
2022-09-16T04:17:26.143Z,14.13
2022-09-16T04:18:26.132Z,14.15
2022-09-16T04:19:26.137Z,14.15
2022-09-16T04:20:26.118Z,14.19
2022-09-16T04:21:26.099Z,14.18
2022-09-16T04:22:26.086Z,14.15
2022-09-16T04:23:26.077Z,14.11
2022-09-16T04:24:26.070Z,14.08
2022-09-16T04:25:26.067Z,14.08
2022-09-16T04:26:26.047Z,14.08
2022-09-16T04:27:26.034Z,14.03
2022-09-16T04:28:26.026Z,14.03
2022-09-16T04:29:26.009Z,14.09
2022-09-16T04:30:26.014Z,14.05
2022-09-16T04:31:26.119Z,14.04
2022-09-16T04:32:25.974Z,14.08
2022-09-16T04:33:25.973Z,14.09
2022-09-16T04:34:25.951Z,14.05
2022-09-16T04:35:25.978Z,14.04
2022-09-16T04:36:25.944Z,14.05
2022-09-16T04:37:25.922Z,14.01
2022-09-16T04:38:25.914Z,14.04
2022-09-16T04:39:25.896Z,14.05
2022-09-16T04:40:25.978Z,14.09
2022-09-16T04:41:25.881Z,14.05
2022-09-16T04:42:25.897Z,14.05
2022-09-16T04:43:25.856Z,14.04
2022-09-16T04:44:25.846Z,14.11
2022-09-16T04:45:25.844Z,14.12
2022-09-16T04:46:25.876Z,14.12
2022-09-16T04:47:25.818Z,14.03
2022-09-16T04:48:25.805Z,14.09
2022-09-16T04:49:25.785Z,14.03
2022-09-16T04:50:25.797Z,14.09
2022-09-16T04:51:25.780Z,14.05
2022-09-16T04:52:25.795Z,14.08
2022-09-16T04:53:25.750Z,14.00
2022-09-16T04:54:25.735Z,14.05
2022-09-16T04:55:25.734Z,14.08
2022-09-16T04:56:25.710Z,14.08
2022-09-16T04:57:25.715Z,13.96
2022-09-16T04:58:25.690Z,14.01
2022-09-16T04:59:25.687Z,14.00
2022-09-16T05:00:25.708Z,14.00
2022-09-16T05:01:25.692Z,13.98
2022-09-16T05:02:25.644Z,14.00
2022-09-16T05:03:25.691Z,14.03
2022-09-16T05:04:25.632Z,14.03
2022-09-16T05:05:25.654Z,14.04
2022-09-16T05:06:25.623Z,13.91
2022-09-16T05:07:25.608Z,14.01
2022-09-16T05:08:25.597Z,13.96
2022-09-16T05:09:25.576Z,14.00
2022-09-16T05:10:25.565Z,14.01
2022-09-16T05:11:25.544Z,13.96
2022-09-16T05:12:32.614Z,14.00
2022-09-16T05:13:25.522Z,14.04
2022-09-16T05:14:25.516Z,13.97
2022-09-16T05:15:25.514Z,14.00
2022-09-16T05:16:25.543Z,13.98
2022-09-16T05:17:49.353Z,13.86
2022-09-16T05:18:26.465Z,13.88
2022-09-16T05:19:25.455Z,13.90
2022-09-16T05:20:25.458Z,13.90
2022-09-16T05:21:25.435Z,13.90
2022-09-16T05:22:25.426Z,13.93
2022-09-16T05:23:25.527Z,13.85
2022-09-16T05:24:25.401Z,13.88
2022-09-16T05:25:25.399Z,13.90
2022-09-16T05:26:25.380Z,13.90
2022-09-16T05:27:25.365Z,13.93
2022-09-16T05:28:25.358Z,13.93
2022-09-16T05:29:25.347Z,13.90
2022-09-16T05:30:26.322Z,13.85
2022-09-16T05:31:25.324Z,13.82
2022-09-16T05:32:25.314Z,13.97
2022-09-16T05:33:25.309Z,13.94
2022-09-16T05:34:25.301Z,13.86
2022-09-16T05:35:25.286Z,13.94
2022-09-16T05:36:25.270Z,13.86
2022-09-16T05:37:25.254Z,13.83
2022-09-16T05:38:25.245Z,13.93
2022-09-16T05:39:26.123Z,13.90
2022-09-16T05:40:25.282Z,13.93
2022-09-16T05:41:25.215Z,13.88
2022-09-16T05:42:25.204Z,13.93
2022-09-16T05:43:25.189Z,13.91
2022-09-16T05:44:25.187Z,13.85
2022-09-16T05:45:30.029Z,13.93
2022-09-16T05:46:26.214Z,13.93
2022-09-16T05:47:25.142Z,13.88
2022-09-16T05:48:25.145Z,13.91
2022-09-16T05:49:25.126Z,13.96
2022-09-16T05:50:25.128Z,13.97
2022-09-16T05:51:25.102Z,13.86
2022-09-16T05:52:25.089Z,13.98
2022-09-16T05:53:25.077Z,14.05
2022-09-16T05:54:25.200Z,13.88
2022-09-16T05:55:25.174Z,13.96
2022-09-16T05:56:25.048Z,14.04
2022-09-16T05:57:25.029Z,13.97
2022-09-16T05:58:25.018Z,13.97
2022-09-16T05:59:25.019Z,14.01
2022-09-16T06:00:25.011Z,14.01
2022-09-16T06:01:25.066Z,13.98
2022-09-16T06:02:25.060Z,14.04
2022-09-16T06:03:24.973Z,14.00
2022-09-16T06:04:24.964Z,14.03
2022-09-16T06:05:24.957Z,14.09
2022-09-16T06:06:24.959Z,13.98
2022-09-16T06:07:24.924Z,14.04
2022-09-16T06:08:24.920Z,14.04
2022-09-16T06:09:24.913Z,14.08
2022-09-16T06:10:24.898Z,14.09
2022-09-16T06:11:24.998Z,14.08
2022-09-16T06:12:24.874Z,14.05
2022-09-16T06:13:24.862Z,14.04
2022-09-16T06:14:24.850Z,14.12
2022-09-16T06:15:24.852Z,14.04
2022-09-16T06:16:24.823Z,14.08
2022-09-16T06:17:24.809Z,14.08
2022-09-16T06:18:24.803Z,14.15
2022-09-16T06:19:24.791Z,14.04
2022-09-16T06:20:24.789Z,14.09
2022-09-16T06:21:24.805Z,14.13
2022-09-16T06:22:24.758Z,14.15
2022-09-16T06:23:24.747Z,14.08
2022-09-16T06:24:24.735Z,14.16
2022-09-16T06:25:24.767Z,14.18
2022-09-16T06:26:24.726Z,14.16
2022-09-16T06:27:24.812Z,14.16
2022-09-16T06:28:24.690Z,14.26
2022-09-16T06:29:24.676Z,14.23
2022-09-16T06:30:28.076Z,14.19
2022-09-16T06:31:25.743Z,14.21
2022-09-16T06:32:24.647Z,14.23
2022-09-16T06:33:24.633Z,14.31
2022-09-16T06:34:24.633Z,14.23
2022-09-16T06:35:24.622Z,14.33
2022-09-16T06:36:24.602Z,14.30
2022-09-16T06:37:24.601Z,14.22
2022-09-16T06:38:24.583Z,14.36
2022-09-16T06:39:24.570Z,14.28
2022-09-16T06:40:24.734Z,14.34
2022-09-16T06:41:24.543Z,14.37
2022-09-16T06:42:24.533Z,14.37
2022-09-16T06:43:24.643Z,14.46
2022-09-16T06:44:24.512Z,14.44
2022-09-16T06:45:24.506Z,14.44
2022-09-16T06:46:24.646Z,14.44
2022-09-16T06:47:24.478Z,14.46
2022-09-16T06:48:24.468Z,14.49
2022-09-16T06:49:24.460Z,14.49
2022-09-16T06:50:24.455Z,14.38
2022-09-16T06:51:24.436Z,14.49
2022-09-16T06:52:24.426Z,14.59
2022-09-16T06:53:24.420Z,14.48
2022-09-16T06:54:24.409Z,14.58
2022-09-16T06:55:24.418Z,14.48
2022-09-16T06:56:24.381Z,14.61
2022-09-16T06:57:24.367Z,14.58
2022-09-16T06:58:24.359Z,14.52
2022-09-16T06:59:24.468Z,14.58
2022-09-16T07:00:24.350Z,14.64
2022-09-16T07:01:24.357Z,14.66
2022-09-16T07:02:24.349Z,14.58
2022-09-16T07:03:24.307Z,14.61
2022-09-16T07:04:24.297Z,14.58
2022-09-16T07:05:24.290Z,14.67
2022-09-16T07:06:33.350Z,14.66
2022-09-16T07:07:25.264Z,14.74
2022-09-16T07:08:24.249Z,14.74
2022-09-16T07:09:24.239Z,14.77
2022-09-16T07:10:24.240Z,14.78
2022-09-16T07:11:24.221Z,14.82
2022-09-16T07:12:24.205Z,14.82
2022-09-16T07:13:24.192Z,14.86
2022-09-16T07:14:24.181Z,14.86
2022-09-16T07:15:24.307Z,14.83
2022-09-16T07:16:24.223Z,14.92
2022-09-16T07:17:24.148Z,14.92
2022-09-16T07:18:24.140Z,14.90
2022-09-16T07:19:24.139Z,14.87
2022-09-16T07:20:24.132Z,15.01
2022-09-16T07:21:24.103Z,14.90
2022-09-16T07:22:24.095Z,14.97
2022-09-16T07:23:24.083Z,14.96
2022-09-16T07:24:24.074Z,15.01
2022-09-16T07:25:24.070Z,15.05
2022-09-16T07:26:24.047Z,15.08
2022-09-16T07:27:24.038Z,14.97
2022-09-16T07:28:24.028Z,15.03
2022-09-16T07:29:24.017Z,15.04
2022-09-16T07:30:24.024Z,15.12
2022-09-16T07:31:24.180Z,15.07
2022-09-16T07:32:23.980Z,15.17
2022-09-16T07:33:23.974Z,15.12
2022-09-16T07:34:23.957Z,15.14
2022-09-16T07:35:23.963Z,15.15
2022-09-16T07:36:23.937Z,15.15
2022-09-16T07:37:23.927Z,15.22
2022-09-16T07:38:23.914Z,15.19
2022-09-16T07:39:23.908Z,15.25
2022-09-16T07:40:27.827Z,15.29
2022-09-16T07:41:24.880Z,15.23
2022-09-16T07:42:23.873Z,15.25
2022-09-16T07:43:23.869Z,15.35
2022-09-16T07:44:23.850Z,15.35
2022-09-16T07:45:23.856Z,15.33
2022-09-16T07:46:23.831Z,15.36
2022-09-16T07:47:23.932Z,15.41
2022-09-16T07:48:23.804Z,15.45
2022-09-16T07:49:23.798Z,15.44
2022-09-16T07:50:23.807Z,15.38
2022-09-16T07:51:23.777Z,15.40
2022-09-16T07:52:23.763Z,15.51
2022-09-16T07:53:25.252Z,15.51
2022-09-16T07:54:23.739Z,15.44
2022-09-16T07:55:23.744Z,15.50
2022-09-16T07:56:23.725Z,15.52
2022-09-16T07:57:23.706Z,15.52
2022-09-16T07:58:23.700Z,15.62
2022-09-16T07:59:23.685Z,15.66
2022-09-16T08:00:23.685Z,15.66
2022-09-16T08:01:23.711Z,15.62
2022-09-16T08:02:23.792Z,15.76
2022-09-16T08:03:23.755Z,15.77
2022-09-16T08:04:23.641Z,15.77
2022-09-16T08:05:23.646Z,15.78
2022-09-16T08:06:23.606Z,15.78
2022-09-16T08:07:35.962Z,15.84
2022-09-16T08:08:24.596Z,15.85
2022-09-16T08:09:41.003Z,15.84
2022-09-16T08:10:32.510Z,15.91
2022-09-16T08:11:23.560Z,15.98
2022-09-16T08:12:23.544Z,15.91
2022-09-16T08:13:23.536Z,15.98
2022-09-16T08:14:23.523Z,16.05
2022-09-16T08:15:23.522Z,16.02
2022-09-16T08:16:23.578Z,16.06
2022-09-16T08:17:23.501Z,16.10
2022-09-16T08:18:23.478Z,16.06
2022-09-16T08:19:23.589Z,16.17
2022-09-16T08:20:23.466Z,16.22
2022-09-16T08:21:23.444Z,16.21
2022-09-16T08:22:23.427Z,16.17
2022-09-16T08:23:23.436Z,16.18
2022-09-16T08:24:23.414Z,16.34
2022-09-16T08:25:23.452Z,16.32
2022-09-16T08:26:23.390Z,16.28
2022-09-16T08:27:23.380Z,16.26
2022-09-16T08:28:23.362Z,16.34
2022-09-16T08:29:23.359Z,16.42
2022-09-16T08:30:23.359Z,16.42
2022-09-16T08:31:23.363Z,16.47
2022-09-16T08:32:23.327Z,16.51
2022-09-16T08:33:23.330Z,16.47
2022-09-16T08:34:23.299Z,16.54
2022-09-16T08:35:23.421Z,16.57
2022-09-16T08:36:23.276Z,16.55
2022-09-16T08:37:23.272Z,16.59
2022-09-16T08:38:23.260Z,16.57
2022-09-16T08:39:23.247Z,16.59
2022-09-16T08:40:23.245Z,16.70
2022-09-16T08:41:23.225Z,16.65
2022-09-16T08:42:24.908Z,16.72
2022-09-16T08:43:23.201Z,16.69
2022-09-16T08:44:23.195Z,16.74
2022-09-16T08:45:23.231Z,16.74
2022-09-16T08:46:23.168Z,16.80
2022-09-16T08:47:23.163Z,16.76
2022-09-16T08:48:27.982Z,16.83
2022-09-16T08:49:24.154Z,16.84
2022-09-16T08:50:23.154Z,16.87
2022-09-16T08:51:23.269Z,16.94
2022-09-16T08:52:23.123Z,16.94
2022-09-16T08:53:23.108Z,16.88
2022-09-16T08:54:23.095Z,17.01
2022-09-16T08:55:23.098Z,17.02
2022-09-16T08:56:23.070Z,17.01
2022-09-16T08:57:23.071Z,17.02
2022-09-16T08:58:23.047Z,17.10
2022-09-16T08:59:23.053Z,17.09
2022-09-16T09:00:23.042Z,17.07
2022-09-16T09:01:23.133Z,17.14
2022-09-16T09:02:23.301Z,17.12
2022-09-16T09:03:23.004Z,17.12
2022-09-16T09:04:22.985Z,17.10
2022-09-16T09:05:22.992Z,17.19
2022-09-16T09:06:22.967Z,17.14
2022-09-16T09:07:23.084Z,17.19
2022-09-16T09:08:22.944Z,17.28
2022-09-16T09:09:22.939Z,17.31
2022-09-16T09:10:22.941Z,17.22
2022-09-16T09:11:22.915Z,17.24
2022-09-16T09:12:23.584Z,17.27
2022-09-16T09:13:23.261Z,17.31
2022-09-16T09:14:22.882Z,17.37
2022-09-16T09:15:28.009Z,17.38
2022-09-16T09:16:23.957Z,17.41
2022-09-16T09:17:22.844Z,17.35
2022-09-16T09:18:22.834Z,17.38
2022-09-16T09:19:22.831Z,17.39
2022-09-16T09:20:22.822Z,17.45
2022-09-16T09:21:24.460Z,17.43
2022-09-16T09:22:22.793Z,17.52
2022-09-16T09:23:22.925Z,17.45
2022-09-16T09:24:22.771Z,17.47
2022-09-16T09:25:22.770Z,17.49
2022-09-16T09:26:22.746Z,17.45
2022-09-16T09:27:22.745Z,17.52
2022-09-16T09:28:22.723Z,17.49
2022-09-16T09:29:22.723Z,17.43
2022-09-16T09:30:22.713Z,17.49
2022-09-16T09:31:22.712Z,17.50
2022-09-16T09:32:22.708Z,17.50
2022-09-16T09:33:45.031Z,17.63
2022-09-16T09:34:23.662Z,17.68
2022-09-16T09:35:22.661Z,17.59
2022-09-16T09:36:22.647Z,17.66
2022-09-16T09:37:22.630Z,17.62
2022-09-16T09:38:22.624Z,17.68
2022-09-16T09:39:22.728Z,17.66
2022-09-16T09:40:22.638Z,17.75
2022-09-16T09:41:22.586Z,17.73
2022-09-16T09:42:22.579Z,17.78
2022-09-16T09:43:22.567Z,17.76
2022-09-16T09:44:22.549Z,17.88
2022-09-16T09:45:22.557Z,17.91
2022-09-16T09:46:22.649Z,17.91
2022-09-16T09:47:22.520Z,17.86
2022-09-16T09:48:22.507Z,17.93
2022-09-16T09:49:22.503Z,17.88
2022-09-16T09:50:22.499Z,17.93
2022-09-16T09:51:22.484Z,18.02
2022-09-16T09:52:22.467Z,17.97
2022-09-16T09:53:22.459Z,18.02
2022-09-16T09:54:22.437Z,18.06
2022-09-16T09:55:22.574Z,18.05
2022-09-16T09:56:22.420Z,18.06
2022-09-16T09:57:22.407Z,18.15
2022-09-16T09:58:22.397Z,18.11
2022-09-16T09:59:22.382Z,18.17
2022-09-16T10:00:22.382Z,18.15
2022-09-16T10:01:22.424Z,18.26
2022-09-16T10:02:22.380Z,18.18
2022-09-16T10:03:22.342Z,18.24
2022-09-16T10:04:22.326Z,18.27
2022-09-16T10:05:22.329Z,18.31
2022-09-16T10:06:22.308Z,18.33
2022-09-16T10:07:22.297Z,18.24
2022-09-16T10:08:22.291Z,18.34
2022-09-16T10:09:22.278Z,18.36
2022-09-16T10:10:22.279Z,18.34
2022-09-16T10:11:22.377Z,18.27
2022-09-16T10:12:22.245Z,18.31
2022-09-16T10:13:22.230Z,18.43
2022-09-16T10:14:22.220Z,18.46
2022-09-16T10:15:22.221Z,18.45
2022-09-16T10:16:22.259Z,18.46
2022-09-16T10:17:22.189Z,18.54
2022-09-16T10:18:22.176Z,18.52
2022-09-16T10:19:22.162Z,18.61
2022-09-16T10:20:22.167Z,18.60
2022-09-16T10:21:22.137Z,18.64
2022-09-16T10:22:22.131Z,18.63
2022-09-16T10:23:24.359Z,18.66
2022-09-16T10:24:22.105Z,18.63
2022-09-16T10:25:22.108Z,18.71
2022-09-16T10:26:22.079Z,18.67
2022-09-16T10:27:22.204Z,18.75
2022-09-16T10:28:22.062Z,18.75
2022-09-16T10:29:22.057Z,18.81
2022-09-16T10:31:22.093Z,18.81
2022-09-16T10:32:22.058Z,18.76
2022-09-16T10:33:22.020Z,18.86
2022-09-16T10:34:21.997Z,18.93
2022-09-16T10:35:21.993Z,18.82
2022-09-16T10:36:21.980Z,18.83
2022-09-16T10:37:21.958Z,18.89
2022-09-16T10:38:21.947Z,18.86
2022-09-16T10:39:21.943Z,18.96
2022-09-16T10:40:21.974Z,18.85
2022-09-16T10:41:21.916Z,18.97
2022-09-16T10:42:21.904Z,19.05
2022-09-16T10:43:22.019Z,18.98
2022-09-16T10:44:21.896Z,18.97
2022-09-16T10:45:21.881Z,19.04
2022-09-16T10:46:21.921Z,19.01
2022-09-16T10:47:21.854Z,19.12
2022-09-16T10:48:21.843Z,19.04
2022-09-16T10:49:21.828Z,19.09
2022-09-16T10:50:21.829Z,19.08
2022-09-16T10:51:21.808Z,19.08
2022-09-16T10:52:21.805Z,19.07
2022-09-16T10:53:21.843Z,19.19
2022-09-16T10:54:21.774Z,19.23
2022-09-16T10:55:21.775Z,19.23
2022-09-16T10:56:21.749Z,19.26
2022-09-16T10:57:21.737Z,19.32
2022-09-16T10:58:21.731Z,19.26
2022-09-16T10:59:21.840Z,19.31
2022-09-16T11:00:21.723Z,19.35
2022-09-16T11:01:22.144Z,19.38
2022-09-16T11:02:21.738Z,19.38
2022-09-16T11:03:23.714Z,19.44
2022-09-16T11:04:21.667Z,19.44
2022-09-16T11:05:24.083Z,19.39
2022-09-16T11:06:21.640Z,19.41
2022-09-16T11:07:21.636Z,19.41
2022-09-16T11:08:21.625Z,19.39
2022-09-16T11:09:21.610Z,19.42
2022-09-16T11:10:21.606Z,19.45
2022-09-16T11:11:21.662Z,19.41
2022-09-16T11:12:21.576Z,19.39
2022-09-16T11:13:21.601Z,19.52
2022-09-16T11:14:21.559Z,19.47
2022-09-16T11:15:21.683Z,19.44
2022-09-16T11:16:21.587Z,19.45
2022-09-16T11:17:21.529Z,19.44
2022-09-16T11:18:21.519Z,19.39
2022-09-16T11:19:21.505Z,19.42
2022-09-16T11:20:21.496Z,19.42
2022-09-16T11:21:21.483Z,19.50
2022-09-16T11:22:21.476Z,19.45
2022-09-16T11:23:21.461Z,19.49
2022-09-16T11:24:21.458Z,19.52
2022-09-16T11:25:21.455Z,19.52
2022-09-16T11:26:21.429Z,19.56
2022-09-16T11:27:21.414Z,19.60
2022-09-16T11:28:21.407Z,19.57
2022-09-16T11:29:25.406Z,19.64
2022-09-16T11:30:22.421Z,19.68
2022-09-16T11:31:21.550Z,19.67
2022-09-16T11:32:21.355Z,19.67
2022-09-16T11:33:21.372Z,19.71
2022-09-16T11:34:21.343Z,19.78
2022-09-16T11:35:21.341Z,19.72
2022-09-16T11:36:21.311Z,19.87
2022-09-16T11:37:21.307Z,19.75
2022-09-16T11:38:21.293Z,19.87
2022-09-16T11:39:21.282Z,19.96
2022-09-16T11:40:21.387Z,19.94
2022-09-16T11:41:21.263Z,20.05
2022-09-16T11:42:21.251Z,20.07
2022-09-16T11:43:21.241Z,20.18
2022-09-16T11:44:21.227Z,20.27
2022-09-16T11:45:21.229Z,20.19
2022-09-16T11:46:21.246Z,20.23
2022-09-16T11:47:21.315Z,20.39
2022-09-16T11:48:21.192Z,20.46
2022-09-16T11:49:21.181Z,20.52
2022-09-16T11:50:21.176Z,20.55
2022-09-16T11:51:21.147Z,20.64
2022-09-16T11:52:21.141Z,20.74
2022-09-16T11:53:23.246Z,20.73
2022-09-16T11:55:21.115Z,20.97
2022-09-16T11:56:21.095Z,21.14
2022-09-16T11:57:21.086Z,21.20
2022-09-16T11:58:21.070Z,21.22
2022-09-16T11:59:21.062Z,21.23
2022-09-16T12:00:21.062Z,21.26
2022-09-16T12:01:21.045Z,21.38
2022-09-16T12:02:21.095Z,21.48
2022-09-16T12:03:21.192Z,21.50
2022-09-16T12:04:21.042Z,21.56
2022-09-16T12:05:21.019Z,21.60
2022-09-16T12:06:20.981Z,21.65
2022-09-16T12:08:20.967Z,21.85
2022-09-16T12:09:20.948Z,21.78
2022-09-16T12:10:20.953Z,21.98
2022-09-16T12:11:20.935Z,22.12
2022-09-16T12:12:20.916Z,21.98
2022-09-16T12:13:20.915Z,22.15
2022-09-16T12:14:20.904Z,22.11
2022-09-16T12:15:20.896Z,22.18
2022-09-16T12:16:20.874Z,22.22
2022-09-16T12:17:20.875Z,22.38
2022-09-16T12:18:20.855Z,22.71
2022-09-16T12:19:20.974Z,22.95
2022-09-16T12:20:20.847Z,23.18
2022-09-16T12:21:20.821Z,23.52
2022-09-16T12:22:20.811Z,23.52
2022-09-16T12:23:20.799Z,23.85
2022-09-16T12:24:20.788Z,24.18
2022-09-16T12:25:20.790Z,24.43
2022-09-16T12:26:20.771Z,24.81
2022-09-16T12:27:20.761Z,25.01
2022-09-16T12:28:20.746Z,25.18
2022-09-16T12:29:20.734Z,25.15
2022-09-16T12:30:20.743Z,25.23
2022-09-16T12:31:23.861Z,25.36
2022-09-16T12:32:20.703Z,25.38
2022-09-16T12:33:20.688Z,25.40
2022-09-16T12:34:20.682Z,25.59
2022-09-16T12:35:20.867Z,25.78
2022-09-16T12:36:23.252Z,26.12
2022-09-16T12:37:20.649Z,26.26
2022-09-16T12:38:20.651Z,26.31
2022-09-16T12:39:20.628Z,26.33
2022-09-16T12:40:20.844Z,26.39
2022-09-16T12:41:20.604Z,26.24
2022-09-16T12:42:20.596Z,26.00
2022-09-16T12:43:20.584Z,25.92
2022-09-16T12:44:33.999Z,25.85
2022-09-16T12:45:21.572Z,25.81
2022-09-16T12:46:20.586Z,25.66
2022-09-16T12:47:20.534Z,25.63
2022-09-16T12:48:20.531Z,25.55
2022-09-16T12:49:20.514Z,25.61
2022-09-16T12:50:20.520Z,25.40
2022-09-16T12:51:20.624Z,25.43
2022-09-16T12:52:20.484Z,25.45
2022-09-16T12:53:20.472Z,25.41
2022-09-16T12:54:20.465Z,25.36
2022-09-16T12:55:20.463Z,25.30